Thursday, August 16, 2018, 9:57 AM EDT
Back to Local

KHPN, White Plains Westchester

Location: Greenwich, NY, United States Lat: 41.067
Local Time: 9:57 AM EDT (13:57 GMT) Lon: -73.7
Time Zone: US/Eastern Elev: 439 ft

Show me the last for .
Show Coded

Time T Td Feel RH Dir Speed Gust Alt SLP Vis Weather Sky Remarks
2018-08-16 08:56 77 67 80 71 290° 13 - 30.06 30.04 10 CLR None
2018-08-16 07:56 76 68 79 76 280° 7 - 30.05 30.03 10 CLR 6-hr Min Temp (8am): 73.0°F
6-hr Max Temp (8am): 75.9°F
2018-08-16 06:56 74 68 78 81 300° 6 - 30.03 30.01 10 CLR None
2018-08-16 05:56 73 68 77 84 310° 8 - 30.02 30.00 10 CLR None
2018-08-16 04:56 74 69 78 84 310° 5 - 30.00 29.98 10 CLR None
2018-08-16 03:56 74 70 78 87 300° 7 - 29.99 29.97 10 CLR None
2018-08-16 02:56 73 69 77 87 290° 3 - 29.99 29.97 10 CLR None
2018-08-16 01:56 74 69 78 84 280° 3 - 29.98 29.96 10 CLR 6-hr Min Temp (2am): 73.0°F
6-hr Max Temp (2am): 80.1°F
2018-08-16 00:56 73 70 77 90 - Calm - 29.99 29.97 10 CLR 24-hr Min Temp (1am): 68.0°F
24-hr Max Temp (1am): 86.0°F
2018-08-15 23:56 77 69 80 76 260° 5 - 29.98 29.96 10 CLR None
2018-08-15 22:56 77 68 80 73 Variable 3 - 29.97 29.95 10 CLR None
2018-08-15 21:56 78 68 81 71 260° 5 - 29.97 29.96 10 CLR None
2018-08-15 20:56 79 67 82 66 290° 3 - 29.96 29.93 10 CLR None
2018-08-15 19:56 79 67 82 66 260° 3 - 29.94 29.92 10 CLR 6-hr Min Temp (8pm): 79.0°F
6-hr Max Temp (8pm): 86.0°F
2018-08-15 18:56 82 67 85 60 250° 5 - 29.92 29.90 10 CLR None
2018-08-15 17:56 84 66 87 54 240° 3 - 29.91 29.89 10 FEW050 None
2018-08-15 16:56 85 66 88 53 270° 7 - 29.91 29.89 10 FEW045 None
2018-08-15 15:56 85 66 88 53 280° 7 - 29.91 29.89 10 FEW049 None
2018-08-15 14:56 85 66 88 53 300° 7 - 29.92 29.89 10 SCT044 None
2018-08-15 13:56 84 66 87 54 290° 12 - 29.92 29.90 10 SCT040 6-hr Min Temp (2pm): 72.0°F
6-hr Max Temp (2pm): 84.0°F
2018-08-15 12:56 82 68 85 62 300° 9 - 29.92 29.90 10 FEW030 None
2018-08-15 11:56 81 68 84 64 270° 8 - 29.92 29.89 10 FEW020 None
2018-08-15 10:56 79 68 82 69 310° 9 - 29.91 29.89 10 FEW020 None

Support USWX by starting your Amazon purchase here.